Time;durP1;ratioP1;P1;durP2;ratioP2;P2;SDS_P1;SDS_P2;PMS_P1;PMS_P2;Temp;Humidity;BMP_temperature;BMP_pressure;BME280_temperature;BME280_humidity;BME280_pressure;Samples;Min_cycle;Max_cycle;Signal;HPM_P1;HPM_P2
2023/04/04 00:00:37;;;;;;;;;;;;;;;19.25;54.16;98207.16;2079189;28;19936;-52
2023/04/04 00:01:39;;;;;;;;;;;;;;;19.23;53.95;98202.00;2082615;28;19976;-56
2023/04/04 00:02:39;;;;;;;;;;;;;;;19.23;53.66;98199.31;2079774;28;19925;-57
2023/04/04 00:03:41;;;;;;;;;;;;;;;19.22;54.13;98208.41;2078951;28;20443;-55
2023/04/04 00:04:43;;;;;;;;;;;;;;;19.22;54.14;98199.53;2083049;28;19928;-53
2023/04/04 00:05:45;;;;;;;;;;;;;;;19.22;53.95;98194.97;2080567;28;20558;-53
2023/04/04 00:06:46;;;;;;;;;;;;;;;19.19;53.95;98198.94;2085843;28;19933;-54
2023/04/04 00:07:48;;;;;;;;;;;;;;;19.20;53.65;98203.28;2084795;28;19939;-56
2023/04/04 00:08:48;;;;;;;;;;;;;;;19.18;53.77;98197.28;2075423;28;19937;-56
2023/04/04 00:09:50;;;;;;;;;;;;;;;19.17;53.92;98197.50;2082487;28;19937;-58
2023/04/04 00:10:55;;;;;;;;;;;;;;;19.17;53.75;98184.06;2077709;28;19933;-51
2023/04/04 00:11:57;;;;;;;;;;;;;;;19.17;54.04;98206.41;2083649;28;19932;-56
2023/04/04 00:12:58;;;;;;;;;;;;;;;19.16;53.68;98193.16;2082029;28;19925;-52
2023/04/04 00:13:59;;;;;;;;;;;;;;;19.15;54.01;98192.34;2078450;28;19986;-55
2023/04/04 00:15:00;;;;;;;;;;;;;;;19.16;53.45;98195.84;2075090;28;19928;-55
2023/04/04 00:16:01;;;;;;;;;;;;;;;19.16;53.48;98185.09;2081494;28;19928;-54
2023/04/04 00:17:02;;;;;;;;;;;;;;;19.15;53.71;98196.91;2076636;28;19936;-57
2023/04/04 00:18:04;;;;;;;;;;;;;;;19.13;53.90;98191.72;2085154;28;19935;-54
2023/04/04 00:19:04;;;;;;;;;;;;;;;19.14;53.71;98189.88;2085222;28;19929;-52
2023/04/04 00:20:08;;;;;;;;;;;;;;;19.12;53.57;98192.78;2084411;28;20493;-56
2023/04/04 00:21:08;;;;;;;;;;;;;;;19.11;53.73;98184.91;2087713;28;19929;-53
2023/04/04 00:22:10;;;;;;;;;;;;;;;19.09;53.71;98190.53;2085445;28;19932;-57
2023/04/04 00:23:10;;;;;;;;;;;;;;;19.09;53.94;98192.41;2084125;28;19932;-55
2023/04/04 00:24:12;;;;;;;;;;;;;;;19.08;53.93;98198.78;2084663;28;19937;-56
2023/04/04 00:25:12;;;;;;;;;;;;;;;19.09;53.46;98195.09;2084499;28;19936;-54
2023/04/04 00:26:14;;;;;;;;;;;;;;;19.08;53.67;98202.31;2083236;28;20350;-57
2023/04/04 00:27:15;;;;;;;;;;;;;;;19.07;53.50;98195.28;2072711;28;19939;-52
2023/04/04 00:28:16;;;;;;;;;;;;;;;19.08;53.54;98199.63;2081191;28;19931;-52
2023/04/04 00:29:16;;;;;;;;;;;;;;;19.08;53.49;98201.50;2075921;28;19936;-51
2023/04/04 00:30:18;;;;;;;;;;;;;;;19.07;53.49;98205.22;2077737;28;19928;-51
2023/04/04 00:31:18;;;;;;;;;;;;;;;19.05;53.66;98201.91;2081872;28;20603;-53
2023/04/04 00:32:20;;;;;;;;;;;;;;;19.05;53.60;98207.31;2084737;28;19929;-52
2023/04/04 00:33:21;;;;;;;;;;;;;;;19.03;53.63;98210.22;2076215;28;19967;-52
2023/04/04 00:34:22;;;;;;;;;;;;;;;19.03;53.45;98210.22;2078205;28;19932;-53
2023/04/04 00:35:24;;;;;;;;;;;;;;;19.03;53.57;98209.38;2083631;28;19978;-52
2023/04/04 00:36:25;;;;;;;;;;;;;;;19.03;53.78;98207.53;2083279;28;19940;-53
2023/04/04 00:37:26;;;;;;;;;;;;;;;19.02;53.64;98208.56;2082685;28;19959;-52
2023/04/04 00:38:28;;;;;;;;;;;;;;;19.02;53.60;98207.72;2079024;28;19932;-52
2023/04/04 00:39:28;;;;;;;;;;;;;;;19.02;53.40;98205.03;2081169;28;19933;-53
2023/04/04 00:40:30;;;;;;;;;;;;;;;19.01;53.61;98208.78;2084409;28;20001;-51
2023/04/04 00:41:31;;;;;;;;;;;;;;;18.99;53.65;98206.31;2084261;28;20536;-55
2023/04/04 00:42:33;;;;;;;;;;;;;;;18.97;53.70;98203.84;2085447;28;19928;-53
2023/04/04 00:43:34;;;;;;;;;;;;;;;18.97;53.47;98209.22;2074915;28;20065;-52
2023/04/04 00:44:35;;;;;;;;;;;;;;;18.97;53.76;98209.22;2081284;28;19999;-54
2023/04/04 00:45:36;;;;;;;;;;;;;;;18.97;53.35;98200.31;2084137;28;19936;-52
2023/04/04 00:46:38;;;;;;;;;;;;;;;18.94;53.80;98196.22;2088360;28;19932;-52
2023/04/04 00:47:38;;;;;;;;;;;;;;;18.94;53.97;98193.53;2084645;28;19958;-53
2023/04/04 00:48:40;;;;;;;;;;;;;;;18.94;53.52;98198.91;2084239;28;19924;-53
2023/04/04 00:49:41;;;;;;;;;;;;;;;18.93;53.83;98194.56;2084978;28;19971;-49
2023/04/04 00:50:44;;;;;;;;;;;;;;;18.93;54.04;98196.41;2087277;28;19929;-52
2023/04/04 00:51:45;;;;;;;;;;;;;;;18.92;53.50;98192.91;2083536;28;19970;-52
2023/04/04 00:52:46;;;;;;;;;;;;;;;18.91;53.60;98201.19;2079109;28;19924;-53
2023/04/04 00:53:47;;;;;;;;;;;;;;;18.90;53.43;98200.38;2080696;28;19933;-53
2023/04/04 00:54:48;;;;;;;;;;;;;;;18.90;53.85;98195.00;2081804;28;19932;-52
2023/04/04 00:55:49;;;;;;;;;;;;;;;18.89;54.08;98195.22;2080096;28;19989;-53
2023/04/04 00:56:53;;;;;;;;;;;;;;;18.90;53.83;98197.69;2082543;28;20432;-52
2023/04/04 00:57:54;;;;;;;;;;;;;;;18.88;53.61;98194.38;2078614;28;19932;-55
2023/04/04 00:58:55;;;;;;;;;;;;;;;18.88;53.53;98196.25;2083305;28;19935;-54
2023/04/04 00:59:56;;;;;;;;;;;;;;;18.84;53.89;98198.53;2080722;28;19928;-54
2023/04/04 01:00:59;;;;;;;;;;;;;;;18.83;53.58;98188.81;2084502;28;20023;-52
2023/04/04 01:02:00;;;;;;;;;;;;;;;18.84;54.00;98193.16;2084362;28;19936;-54
2023/04/04 01:03:01;;;;;;;;;;;;;;;18.85;53.84;98185.94;2086200;28;20571;-53
2023/04/04 01:04:02;;;;;;;;;;;;;;;18.85;53.89;98185.94;2085181;28;20046;-50
2023/04/04 01:05:03;;;;;;;;;;;;;;;18.85;53.48;98181.38;2084596;28;19928;-53
2023/04/04 01:06:05;;;;;;;;;;;;;;;18.85;53.46;98194.81;2084823;28;20424;-53
2023/04/04 01:07:07;;;;;;;;;;;;;;;18.85;53.64;98188.63;2087410;28;19935;-51
2023/04/04 01:08:08;;;;;;;;;;;;;;;18.84;53.53;98185.09;2078799;28;20466;-53
2023/04/04 01:09:09;;;;;;;;;;;;;;;18.83;53.68;98188.00;2080892;28;20032;-53
2023/04/04 01:10:11;;;;;;;;;;;;;;;18.80;53.70;98183.88;2080175;28;19929;-51
2023/04/04 01:11:12;;;;;;;;;;;;;;;18.82;53.84;98187.19;2081547;28;19982;-51
2023/04/04 01:12:13;;;;;;;;;;;;;;;18.80;53.76;98181.19;2081259;28;19978;-53
2023/04/04 01:13:15;;;;;;;;;;;;;;;18.78;53.76;98183.28;2081458;28;20997;-52
2023/04/04 01:14:15;;;;;;;;;;;;;;;18.78;53.51;98183.28;2078013;28;19929;-51
2023/04/04 01:15:17;;;;;;;;;;;;;;;18.77;53.69;98178.13;2082931;28;19989;-54
2023/04/04 01:16:17;;;;;;;;;;;;;;;18.77;53.89;98178.13;2081568;27;19929;-53
2023/04/04 01:17:19;;;;;;;;;;;;;;;18.77;53.63;98184.31;2083669;28;19928;-54
2023/04/04 01:18:21;;;;;;;;;;;;;;;18.74;53.57;98180.19;2082062;28;19932;-53
2023/04/04 01:19:28;;;;;;;;;;;;;;;18.77;53.46;98187.00;2076479;28;20495;-51
2023/04/04 01:20:31;;;;;;;;;;;;;;;18.73;53.59;98183.91;2073745;28;19940;-54
2023/04/04 01:21:34;;;;;;;;;;;;;;;18.74;53.67;98176.69;2081629;28;19934;-51
2023/04/04 01:22:36;;;;;;;;;;;;;;;18.70;53.76;98173.59;2079009;28;21117;-52
2023/04/04 01:23:47;;;;;;;;;;;;;;;18.71;54.05;98179.78;2077131;28;20304;-52
2023/04/04 01:24:48;;;;;;;;;;;;;;;18.71;53.84;98175.22;2078756;28;19932;-53
2023/04/04 01:25:59;;;;;;;;;;;;;;;18.70;53.74;98173.59;2082013;28;19982;-52
2023/04/04 01:27:00;;;;;;;;;;;;;;;18.69;53.71;98188.06;2086138;28;19946;-53
2023/04/04 01:28:01;;;;;;;;;;;;;;;18.68;54.03;98180.22;2084342;28;19928;-53
2023/04/04 01:29:03;;;;;;;;;;;;;;;18.69;53.97;98188.06;2085302;28;19925;-54
2023/04/04 01:30:04;;;;;;;;;;;;;;;18.68;54.05;98186.41;2084464;28;19932;-54
2023/04/04 01:31:07;;;;;;;;;;;;;;;18.69;53.51;98193.44;2084360;27;19963;-53
2023/04/04 01:32:11;;;;;;;;;;;;;;;18.69;53.73;98187.22;2084588;28;19986;-54
2023/04/04 01:33:19;;;;;;;;;;;;;;;18.66;53.95;98187.66;2083565;28;19940;-54
2023/04/04 01:34:23;;;;;;;;;;;;;;;18.63;53.94;98188.09;2085015;28;20414;-54
2023/04/04 01:35:28;;;;;;;;;;;;;;;18.65;53.70;98199.44;2082725;28;19929;-51
2023/04/04 01:36:30;;;;;;;;;;;;;;;18.63;53.70;98190.75;2085508;28;19929;-53
2023/04/04 01:37:38;;;;;;;;;;;;;;;18.63;53.77;98194.28;2080809;28;20051;-54
2023/04/04 01:38:46;;;;;;;;;;;;;;;18.62;53.79;98199.88;2083889;28;19929;-55
2023/04/04 01:39:48;;;;;;;;;;;;;;;18.63;53.45;98196.13;2077590;28;19955;-53
2023/04/04 01:40:54;;;;;;;;;;;;;;;18.62;53.80;98202.56;2084549;28;19978;-53
2023/04/04 01:41:56;;;;;;;;;;;;;;;18.60;53.85;98199.25;2084801;28;19968;-55
2023/04/04 01:42:57;;;;;;;;;;;;;;;18.60;53.72;98191.19;2083646;27;20039;-54
2023/04/04 01:43:59;;;;;;;;;;;;;;;18.61;53.95;98193.69;2083844;28;20111;-53
2023/04/04 01:44:59;;;;;;;;;;;;;;;18.60;53.79;98199.25;2082777;28;20360;-51
2023/04/04 01:46:01;;;;;;;;;;;;;;;18.61;53.83;98201.75;2085687;28;19928;-52
2023/04/04 01:47:04;;;;;;;;;;;;;;;18.58;54.02;98196.78;2085480;28;19989;-53
2023/04/04 01:48:07;;;;;;;;;;;;;;;18.59;53.53;98192.25;2082981;28;19942;-53
2023/04/04 01:49:07;;;;;;;;;;;;;;;18.61;53.67;98198.22;2083007;28;19957;-51
2023/04/04 01:50:09;;;;;;;;;;;;;;;18.59;53.60;98186.88;2085109;28;19933;-54
2023/04/04 01:51:10;;;;;;;;;;;;;;;18.58;53.81;98196.78;2084799;28;19947;-54
2023/04/04 01:52:12;;;;;;;;;;;;;;;18.55;53.53;98197.19;2085588;28;20781;-54
2023/04/04 01:53:12;;;;;;;;;;;;;;;18.55;53.92;98199.88;2083986;28;20364;-51
2023/04/04 01:54:14;;;;;;;;;;;;;;;18.57;53.58;98194.31;2083096;28;20010;-54
2023/04/04 01:55:15;;;;;;;;;;;;;;;18.55;53.51;98191.84;2079773;28;20075;-54
2023/04/04 01:56:18;;;;;;;;;;;;;;;18.54;53.70;98200.94;2084023;28;19932;-53
2023/04/04 01:57:18;;;;;;;;;;;;;;;18.53;53.57;98197.44;2083636;28;20397;-53
2023/04/04 01:58:19;;;;;;;;;;;;;;;18.54;53.86;98193.69;2083971;28;19924;-53
2023/04/04 01:59:20;;;;;;;;;;;;;;;18.53;53.80;98193.94;2078812;28;19929;-51
2023/04/04 02:00:22;;;;;;;;;;;;;;;18.53;53.59;98192.06;2081215;28;19936;-52
2023/04/04 02:01:22;;;;;;;;;;;;;;;18.52;53.56;98198.44;2083700;28;19931;-53
2023/04/04 02:02:24;;;;;;;;;;;;;;;18.53;53.63;98200.13;2085116;27;19978;-53
2023/04/04 02:03:24;;;;;;;;;;;;;;;18.53;53.60;98204.66;2083365;28;20407;-51
2023/04/04 02:04:26;;;;;;;;;;;;;;;18.50;53.81;98205.91;2082125;27;19932;-54
2023/04/04 02:05:27;;;;;;;;;;;;;;;18.49;53.59;98204.25;2081573;28;19933;-52
2023/04/04 02:06:29;;;;;;;;;;;;;;;18.49;53.52;98203.44;2083164;28;19932;-53
2023/04/04 02:07:29;;;;;;;;;;;;;;;18.46;53.67;98199.31;2084870;28;19963;-52
2023/04/04 02:08:30;;;;;;;;;;;;;;;18.48;53.77;98201.78;2084098;28;19933;-55
2023/04/04 02:09:31;;;;;;;;;;;;;;;18.47;53.53;98202.81;2082206;28;20028;-54
2023/04/04 02:10:32;;;;;;;;;;;;;;;18.46;53.65;98198.50;2085185;28;20391;-52
2023/04/04 02:11:34;;;;;;;;;;;;;;;18.48;53.69;98204.47;2080203;28;19940;-54
2023/04/04 02:12:36;;;;;;;;;;;;;;;18.47;53.82;98205.50;2078315;28;19970;-53
2023/04/04 02:13:40;;;;;;;;;;;;;;;18.46;53.69;98201.19;2082065;28;21022;-53
2023/04/04 02:14:41;;;;;;;;;;;;;;;18.47;53.72;98195.59;2082336;28;19955;-53
2023/04/04 02:15:42;;;;;;;;;;;;;;;18.44;53.82;98197.88;2077585;28;19976;-53
2023/04/04 02:16:43;;;;;;;;;;;;;;;18.43;53.60;98197.06;2077881;28;19944;-52
2023/04/04 02:17:46;;;;;;;;;;;;;;;18.44;53.59;98206.78;2079323;28;19932;-53
2023/04/04 02:18:47;;;;;;;;;;;;;;;18.43;53.74;98194.38;2082499;27;19934;-52
2023/04/04 02:19:48;;;;;;;;;;;;;;;18.45;53.74;98205.72;2082881;28;19940;-55
2023/04/04 02:20:55;;;;;;;;;;;;;;;18.43;53.46;98194.38;2081232;28;19929;-52
2023/04/04 02:21:56;;;;;;;;;;;;;;;18.43;53.66;98202.41;2083473;28;20801;-50
2023/04/04 02:22:57;;;;;;;;;;;;;;;18.41;53.68;98212.53;2081280;28;20004;-53
2023/04/04 02:23:58;;;;;;;;;;;;;;;18.40;53.69;98216.28;2078344;28;20017;-54
2023/04/04 02:25:01;;;;;;;;;;;;;;;18.41;53.70;98207.19;2076898;28;19940;-50
2023/04/04 02:26:02;;;;;;;;;;;;;;;18.40;53.52;98210.09;2079943;28;19932;-53
2023/04/04 02:27:05;;;;;;;;;;;;;;;18.41;53.82;98211.72;2085767;28;19947;-54
2023/04/04 02:28:05;;;;;;;;;;;;;;;18.39;53.36;98203.91;2084568;28;20387;-53
2023/04/04 02:29:07;;;;;;;;;;;;;;;18.40;53.50;98204.72;2088025;28;20055;-50
2023/04/04 02:30:08;;;;;;;;;;;;;;;18.40;53.60;98210.09;2085299;28;20006;-54
2023/04/04 02:31:10;;;;;;;;;;;;;;;18.39;53.41;98203.91;2087400;28;19943;-52
2023/04/04 02:32:10;;;;;;;;;;;;;;;18.39;53.65;98214.63;2087000;28;19988;-52
2023/04/04 02:33:12;;;;;;;;;;;;;;;18.37;53.42;98203.28;2085882;28;19978;-53
2023/04/04 02:34:12;;;;;;;;;;;;;;;18.38;53.61;98212.16;2084655;28;19935;-53
2023/04/04 02:35:14;;;;;;;;;;;;;;;18.37;53.62;98210.50;2087924;28;20038;-52
2023/04/04 02:36:14;;;;;;;;;;;;;;;18.37;53.51;98211.34;2085956;28;19936;-52
2023/04/04 02:37:16;;;;;;;;;;;;;;;18.36;53.46;98216.91;2085279;28;19924;-52
2023/04/04 02:38:17;;;;;;;;;;;;;;;18.36;53.56;98209.69;2085843;28;19959;-51
2023/04/04 02:39:18;;;;;;;;;;;;;;;18.34;53.65;98214.44;2083009;28;19959;-50
2023/04/04 02:40:19;;;;;;;;;;;;;;;18.34;53.48;98213.63;2079747;28;19929;-52
2023/04/04 02:41:20;;;;;;;;;;;;;;;18.31;53.73;98206.81;2078240;28;19933;-50
2023/04/04 02:42:22;;;;;;;;;;;;;;;18.31;53.61;98210.31;2080251;28;19954;-51
2023/04/04 02:43:24;;;;;;;;;;;;;;;18.32;53.63;98197.72;2080851;28;20039;-50
2023/04/04 02:44:24;;;;;;;;;;;;;;;18.32;53.45;98208.47;2084862;28;19925;-50
2023/04/04 02:45:26;;;;;;;;;;;;;;;18.31;53.69;98204.94;2080171;28;20068;-53
2023/04/04 02:46:26;;;;;;;;;;;;;;;18.32;53.34;98203.09;2081804;28;19929;-52
2023/04/04 02:47:28;;;;;;;;;;;;;;;18.32;53.72;98208.47;2080780;28;19929;-53
2023/04/04 02:48:29;;;;;;;;;;;;;;;18.33;53.29;98212.81;2083972;28;20020;-55
2023/04/04 02:49:30;;;;;;;;;;;;;;;18.29;53.62;98219.63;2085850;28;19928;-57
2023/04/04 02:50:31;;;;;;;;;;;;;;;18.30;53.34;98218.56;2086298;28;20287;-51
2023/04/04 02:51:32;;;;;;;;;;;;;;;18.29;53.35;98219.63;2084325;28;19935;-50
2023/04/04 02:52:33;;;;;;;;;;;;;;;18.28;53.66;98223.34;2088104;28;20340;-51
2023/04/04 02:53:35;;;;;;;;;;;;;;;18.27;53.73;98221.69;2085534;28;19931;-49
2023/04/04 02:54:35;;;;;;;;;;;;;;;18.25;53.61;98219.22;2084474;28;20403;-50
2023/04/04 02:55:36;;;;;;;;;;;;;;;18.26;53.50;98220.03;2079357;28;19936;-53
2023/04/04 02:56:37;;;;;;;;;;;;;;;18.26;53.55;98226.25;2085050;28;19940;-53
2023/04/04 02:57:40;;;;;;;;;;;;;;;18.28;53.41;98223.34;2078966;28;19933;-54
2023/04/04 02:58:41;;;;;;;;;;;;;;;18.28;53.64;98228.72;2078861;28;19929;-56
2023/04/04 02:59:42;;;;;;;;;;;;;;;18.26;53.39;98228.91;2076404;28;19929;-53
2023/04/04 03:00:42;;;;;;;;;;;;;;;18.26;53.44;98236.16;2078391;28;19932;-52
2023/04/04 03:01:44;;;;;;;;;;;;;;;18.23;53.62;98228.53;2082210;28;19933;-52
2023/04/04 03:02:51;;;;;;;;;;;;;;;18.23;53.44;98232.03;2086757;28;20023;-57
2023/04/04 03:03:53;;;;;;;;;;;;;;;18.23;53.58;98231.22;2081071;28;19982;-51
2023/04/04 03:04:53;;;;;;;;;;;;;;;18.21;53.63;98235.97;2078773;28;19929;-52
2023/04/04 03:05:55;;;;;;;;;;;;;;;18.22;53.38;98230.41;2078821;28;20348;-51
2023/04/04 03:06:56;;;;;;;;;;;;;;;18.19;53.54;98225.44;2084586;28;19974;-53
2023/04/04 03:07:58;;;;;;;;;;;;;;;18.19;53.72;98229.97;2083621;28;19929;-55
2023/04/04 03:08:58;;;;;;;;;;;;;;;18.17;53.48;98232.88;2085195;28;19981;-52
2023/04/04 03:10:00;;;;;;;;;;;;;;;18.20;53.62;98231.63;2086652;28;20334;-54
2023/04/04 03:11:01;;;;;;;;;;;;;;;18.21;53.44;98235.97;2085948;28;20001;-55
2023/04/04 03:12:03;;;;;;;;;;;;;;;18.21;53.38;98231.41;2083604;28;20008;-53
2023/04/04 03:13:05;;;;;;;;;;;;;;;18.24;53.18;98240.91;2085233;28;19928;-52
2023/04/04 03:14:07;;;;;;;;;;;;;;;18.23;53.09;98231.22;2084111;28;20028;-55
2023/04/04 03:15:07;;;;;;;;;;;;;;;18.24;53.34;98232.84;2084768;28;19928;-58
2023/04/04 03:16:10;;;;;;;;;;;;;;;18.23;53.15;98234.72;2086114;28;19956;-57
2023/04/04 03:17:13;;;;;;;;;;;;;;;18.24;53.17;98228.28;2081432;28;20503;-52
2023/04/04 03:18:15;;;;;;;;;;;;;;;18.27;52.82;98235.09;2081369;28;20009;-55
2023/04/04 03:19:15;;;;;;;;;;;;;;;18.29;52.69;98231.19;2085650;28;20502;-55
2023/04/04 03:20:17;;;;;;;;;;;;;;;18.30;52.85;98232.84;2084999;28;20019;-52
2023/04/04 03:21:18;;;;;;;;;;;;;;;18.32;52.95;98235.31;2077718;28;19925;-53
2023/04/04 03:22:19;;;;;;;;;;;;;;;18.33;52.51;98233.44;2080358;28;19935;-52
2023/04/04 03:23:19;;;;;;;;;;;;;;;18.33;52.47;98233.44;2082804;28;19936;-55
2023/04/04 03:24:21;;;;;;;;;;;;;;;18.31;52.47;98229.13;2077619;28;19928;-54
2023/04/04 03:25:22;;;;;;;;;;;;;;;18.34;52.67;98232.41;2079903;28;19924;-53
2023/04/04 03:26:23;;;;;;;;;;;;;;;18.35;52.71;98234.88;2084144;28;19951;-56
2023/04/04 03:27:23;;;;;;;;;;;;;;;18.35;52.41;98234.88;2083417;28;19974;-53
2023/04/04 03:28:26;;;;;;;;;;;;;;;18.35;52.39;98239.44;2079307;28;19933;-53
2023/04/04 03:29:27;;;;;;;;;;;;;;;18.36;52.47;98233.88;2083800;28;19925;-51
2023/04/04 03:30:28;;;;;;;;;;;;;;;18.36;52.32;98230.31;2073432;28;20077;-51
2023/04/04 03:31:29;;;;;;;;;;;;;;;18.38;52.46;98241.69;2078394;28;20031;-51
2023/04/04 03:32:31;;;;;;;;;;;;;;;18.38;52.44;98244.38;2085625;28;19935;-55
2023/04/04 03:33:32;;;;;;;;;;;;;;;18.39;52.31;98246.03;2079449;27;19929;-55
2023/04/04 03:34:33;;;;;;;;;;;;;;;18.41;52.45;98242.09;2081898;28;19928;-56
2023/04/04 03:35:36;;;;;;;;;;;;;;;18.42;52.40;98237.56;2081669;28;19932;-55
2023/04/04 03:36:37;;;;;;;;;;;;;;;18.42;52.16;98240.25;2086240;28;19952;-56
2023/04/04 03:37:38;;;;;;;;;;;;;;;18.46;52.11;98242.28;2085413;28;19929;-55
2023/04/04 03:38:40;;;;;;;;;;;;;;;18.49;52.09;98239.16;2087345;28;19940;-56
2023/04/04 03:39:40;;;;;;;;;;;;;;;18.52;52.09;98241.41;2083597;28;19928;-55
2023/04/04 03:40:42;;;;;;;;;;;;;;;18.56;52.03;98246.41;2086722;28;20329;-52
2023/04/04 03:41:43;;;;;;;;;;;;;;;18.60;51.75;98247.59;2086396;28;20019;-53
2023/04/04 03:42:44;;;;;;;;;;;;;;;18.64;51.98;98243.47;2086802;28;19971;-52
2023/04/04 03:43:47;;;;;;;;;;;;;;;18.68;51.72;98245.50;2084789;28;19929;-55
2023/04/04 03:44:48;;;;;;;;;;;;;;;18.72;51.86;98252.09;2081671;28;19928;-53
2023/04/04 03:45:49;;;;;;;;;;;;;;;18.75;51.92;98242.84;2076811;28;20071;-54
2023/04/04 03:46:50;;;;;;;;;;;;;;;18.84;51.28;98246.09;2077793;28;19932;-51
2023/04/04 03:47:51;;;;;;;;;;;;;;;18.87;51.34;98241.09;2084594;28;19978;-57
2023/04/04 03:48:52;;;;;;;;;;;;;;;18.91;51.36;98247.69;2083427;28;19932;-55
2023/04/04 03:49:54;;;;;;;;;;;;;;;18.92;51.43;98241.28;2079663;28;20571;-52
2023/04/04 03:50:56;;;;;;;;;;;;;;;18.97;51.36;98232.56;2082497;28;19968;-55
2023/04/04 03:51:57;;;;;;;;;;;;;;;19.00;51.58;98242.06;2080150;28;19932;-52
2023/04/04 03:52:58;;;;;;;;;;;;;;;18.98;51.40;98245.78;2083671;28;20435;-52
2023/04/04 03:53:59;;;;;;;;;;;;;;;19.01;51.39;98243.72;2086681;28;20544;-53
2023/04/04 03:55:00;;;;;;;;;;;;;;;19.03;51.32;98242.47;2083839;28;19938;-51
2023/04/04 03:56:01;;;;;;;;;;;;;;;19.05;51.69;98239.56;2079868;28;20012;-56
2023/04/04 03:57:02;;;;;;;;;;;;;;;19.10;51.41;98242.41;2085574;28;19932;-50
2023/04/04 03:58:03;;;;;;;;;;;;;;;19.11;51.24;98242.22;2085411;28;19972;-52
2023/04/04 03:59:06;;;;;;;;;;;;;;;19.12;51.30;98235.78;2084844;28;20392;-51
2023/04/04 04:00:07;;;;;;;;;;;;;;;19.16;51.15;98242.38;2084224;28;20847;-51
2023/04/04 04:01:08;;;;;;;;;;;;;;;19.18;51.09;98242.97;2084281;28;20014;-56
2023/04/04 04:02:09;;;;;;;;;;;;;;;19.21;51.00;98241.72;2081568;28;19933;-56
2023/04/04 04:03:10;;;;;;;;;;;;;;;19.24;50.99;98243.97;2084941;28;19978;-49
2023/04/04 04:04:11;;;;;;;;;;;;;;;19.26;50.88;98244.59;2081286;28;20341;-53
2023/04/04 04:05:12;;;;;;;;;;;;;;;19.28;51.16;98247.91;2077187;28;20005;-54
2023/04/04 04:06:13;;;;;;;;;;;;;;;19.28;51.14;98245.22;2078894;28;19928;-53
2023/04/04 04:07:14;;;;;;;;;;;;;;;19.32;50.80;98243.72;2078512;28;20473;-50
2023/04/04 04:08:15;;;;;;;;;;;;;;;19.33;50.92;98241.84;2080966;28;19932;-53
2023/04/04 04:09:16;;;;;;;;;;;;;;;19.34;50.80;98247.03;2083847;28;19936;-54
2023/04/04 04:10:17;;;;;;;;;;;;;;;19.35;50.67;98235.22;2084499;28;20019;-57
2023/04/04 04:11:18;;;;;;;;;;;;;;;19.38;51.06;98250.91;2086068;28;20810;-52
2023/04/04 04:12:19;;;;;;;;;;;;;;;19.38;50.70;98245.53;2085648;28;20791;-53
2023/04/04 04:13:21;;;;;;;;;;;;;;;19.43;50.56;98247.56;2084010;28;19990;-51
2023/04/04 04:14:22;;;;;;;;;;;;;;;19.46;50.90;98251.69;2078634;28;19924;-50
2023/04/04 04:15:24;;;;;;;;;;;;;;;19.47;50.71;98243.41;2083060;28;19947;-55
2023/04/04 04:16:26;;;;;;;;;;;;;;;19.48;50.76;98239.69;2084866;28;19929;-51
2023/04/04 04:17:27;;;;;;;;;;;;;;;19.50;50.44;98242.13;2084604;28;20295;-54
2023/04/04 04:18:28;;;;;;;;;;;;;;;19.51;50.72;98246.50;2085349;28;19935;-53
2023/04/04 04:19:28;;;;;;;;;;;;;;;19.51;50.89;98244.63;2082334;28;19939;-50
2023/04/04 04:20:30;;;;;;;;;;;;;;;19.55;50.67;98245.81;2081608;28;19974;-54
2023/04/04 04:21:31;;;;;;;;;;;;;;;19.56;50.64;98252.88;2074782;28;19935;-52
2023/04/04 04:22:32;;;;;;;;;;;;;;;19.56;50.70;98252.03;2081049;28;19971;-53
2023/04/04 04:23:32;;;;;;;;;;;;;;;19.58;50.44;98252.63;2080515;28;19928;-54
2023/04/04 04:24:34;;;;;;;;;;;;;;;19.60;50.65;98253.25;2077104;28;19936;-56
2023/04/04 04:25:34;;;;;;;;;;;;;;;19.60;50.58;98237.09;2078539;28;20028;-50
2023/04/04 04:26:36;;;;;;;;;;;;;;;19.64;50.19;98251.78;2084717;28;19983;-54
2023/04/04 04:27:36;;;;;;;;;;;;;;;19.62;50.56;98238.53;2078383;28;20573;-53
2023/04/04 04:28:38;;;;;;;;;;;;;;;19.63;50.38;98242.03;2083189;28;19932;-53
2023/04/04 04:29:39;;;;;;;;;;;;;;;19.66;50.18;98247.00;2079834;28;19929;-55
2023/04/04 04:30:41;;;;;;;;;;;;;;;19.64;50.68;98249.09;2086871;28;20039;-53
2023/04/04 04:31:41;;;;;;;;;;;;;;;19.65;50.45;98256.09;2074040;28;19928;-54
2023/04/04 04:32:43;;;;;;;;;;;;;;;19.67;50.48;98245.13;2084664;28;19979;-52
2023/04/04 04:33:43;;;;;;;;;;;;;;;19.67;50.47;98254.06;2079726;28;19932;-51
2023/04/04 04:34:45;;;;;;;;;;;;;;;19.69;50.38;98246.56;2079088;28;19933;-57
2023/04/04 04:35:46;;;;;;;;;;;;;;;19.68;50.43;98255.69;2083783;28;20541;-54
2023/04/04 04:36:47;;;;;;;;;;;;;;;19.71;50.46;98246.34;2077569;28;19970;-51
2023/04/04 04:37:48;;;;;;;;;;;;;;;19.71;50.10;98252.56;2080004;28;19932;-53
2023/04/04 04:38:49;;;;;;;;;;;;;;;19.71;50.23;98249.88;2078581;28;19932;-52
2023/04/04 04:39:51;;;;;;;;;;;;;;;19.71;50.18;98244.50;2081294;28;19975;-54
2023/04/04 04:40:52;;;;;;;;;;;;;;;19.71;50.43;98249.88;2085168;28;20039;-53
2023/04/04 04:41:53;;;;;;;;;;;;;;;19.72;50.14;98251.50;2086465;28;20661;-53
2023/04/04 04:42:55;;;;;;;;;;;;;;;19.73;50.39;98253.16;2085824;28;19933;-54
2023/04/04 04:43:55;;;;;;;;;;;;;;;19.73;50.08;98249.66;2075680;28;20276;-53
2023/04/04 04:44:58;;;;;;;;;;;;;;;19.73;50.05;98249.66;2074600;28;19982;-53
2023/04/04 04:45:58;;;;;;;;;;;;;;;19.73;50.33;98245.09;2076876;28;19929;-52
2023/04/04 04:47:00;;;;;;;;;;;;;;;19.73;50.34;98255.84;2081106;28;20360;-53
2023/04/04 04:48:00;;;;;;;;;;;;;;;19.73;50.26;98263.94;2082373;28;20043;-53
2023/04/04 04:49:02;;;;;;;;;;;;;;;19.74;50.29;98270.94;2083363;28;20279;-54
2023/04/04 04:50:03;;;;;;;;;;;;;;;19.74;50.26;98260.19;2082518;28;19929;-52
2023/04/04 04:51:04;;;;;;;;;;;;;;;19.76;50.44;98259.97;2084712;28;19928;-53
2023/04/04 04:52:05;;;;;;;;;;;;;;;19.76;50.28;98259.97;2087157;28;19924;-54
2023/04/04 04:53:07;;;;;;;;;;;;;;;19.77;50.25;98265.13;2076731;28;19925;-53
2023/04/04 04:54:07;;;;;;;;;;;;;;;19.76;50.26;98262.69;2079086;28;19929;-54
2023/04/04 04:55:10;;;;;;;;;;;;;;;19.78;50.18;98265.94;2080399;28;20008;-51
2023/04/04 04:56:10;;;;;;;;;;;;;;;19.77;50.18;98269.69;2087138;28;20412;-53
2023/04/04 04:57:12;;;;;;;;;;;;;;;19.75;50.30;98267.25;2084637;28;19928;-53
2023/04/04 04:58:12;;;;;;;;;;;;;;;19.76;50.14;98270.75;2084393;28;19990;-53
2023/04/04 05:00:34;;;;;;;;;;;;;;;19.74;50.29;98276.34;2081217;28;20503;-52
2023/04/04 05:01:34;;;;;;;;;;;;;;;19.74;50.28;98276.34;2085060;28;19959;-52
2023/04/04 05:02:36;;;;;;;;;;;;;;;19.74;50.05;98267.44;2083564;28;20008;-53
2023/04/04 05:03:36;;;;;;;;;;;;;;;19.76;50.14;98278.81;2084084;28;20155;-51
2023/04/04 05:04:40;;;;;;;;;;;;;;;19.76;49.94;98268.06;2081350;28;20457;-53
2023/04/04 05:05:41;;;;;;;;;;;;;;;19.77;50.26;98273.19;2077165;28;22161;-50
2023/04/04 05:06:42;;;;;;;;;;;;;;;19.78;50.29;98284.78;2079163;28;20819;-51
2023/04/04 05:07:43;;;;;;;;;;;;;;;19.77;49.97;98286.66;2079882;28;20003;-54
2023/04/04 05:08:45;;;;;;;;;;;;;;;19.77;50.01;98285.84;2081724;28;19992;-53
2023/04/04 05:09:45;;;;;;;;;;;;;;;19.77;49.94;98291.22;2084760;28;19932;-53
2023/04/04 05:10:47;;;;;;;;;;;;;;;19.78;50.02;98284.78;2078375;28;19928;-52
2023/04/04 05:11:47;;;;;;;;;;;;;;;19.75;50.11;98280.69;2084329;28;19931;-53
2023/04/04 05:12:49;;;;;;;;;;;;;;;19.76;49.91;98282.31;2080818;28;20417;-51
2023/04/04 05:13:49;;;;;;;;;;;;;;;19.75;50.08;98280.69;2080536;28;19932;-52
2023/04/04 05:14:51;;;;;;;;;;;;;;;19.75;50.04;98280.69;2073651;28;19932;-53
2023/04/04 05:15:53;;;;;;;;;;;;;;;19.74;50.09;98287.09;2078065;28;19932;-51
2023/04/04 05:16:54;;;;;;;;;;;;;;;19.75;49.90;98286.06;2079961;28;20019;-52
2023/04/04 05:17:55;;;;;;;;;;;;;;;19.75;50.23;98283.38;2081654;28;19924;-52
2023/04/04 05:18:57;;;;;;;;;;;;;;;19.75;50.20;98288.75;2084959;28;19978;-53
2023/04/04 05:19:57;;;;;;;;;;;;;;;19.75;50.23;98287.91;2082578;28;19936;-53
2023/04/04 05:20:59;;;;;;;;;;;;;;;19.75;50.16;98285.22;2081448;28;19936;-53
2023/04/04 05:21:59;;;;;;;;;;;;;;;19.76;49.87;98289.59;2080317;27;19975;-53